sensor_id;sensor_type;location;lat;lon;timestamp;P1;durP1;ratioP1;P2;durP2;ratioP2
11113;SDS011;5610;52.154;9.198;2024-01-30T00:00:42;16.00;;;14.32;;
11113;SDS011;5610;52.154;9.198;2024-01-30T00:03:27;15.00;;;13.50;;
11113;SDS011;5610;52.154;9.198;2024-01-30T00:06:14;16.15;;;14.50;;
11113;SDS011;5610;52.154;9.198;2024-01-30T00:08:59;15.32;;;13.82;;
11113;SDS011;5610;52.154;9.198;2024-01-30T00:11:46;18.27;;;15.70;;
11113;SDS011;5610;52.154;9.198;2024-01-30T00:14:33;17.08;;;15.27;;
11113;SDS011;5610;52.154;9.198;2024-01-30T00:17:18;17.60;;;15.85;;
11113;SDS011;5610;52.154;9.198;2024-01-30T00:20:05;18.13;;;15.90;;
11113;SDS011;5610;52.154;9.198;2024-01-30T00:22:52;19.10;;;17.10;;
11113;SDS011;5610;52.154;9.198;2024-01-30T00:25:37;21.10;;;17.47;;
11113;SDS011;5610;52.154;9.198;2024-01-30T00:28:23;18.50;;;16.57;;
11113;SDS011;5610;52.154;9.198;2024-01-30T00:31:09;17.70;;;15.90;;
11113;SDS011;5610;52.154;9.198;2024-01-30T00:33:56;18.80;;;16.80;;
11113;SDS011;5610;52.154;9.198;2024-01-30T00:36:41;19.63;;;17.00;;
11113;SDS011;5610;52.154;9.198;2024-01-30T00:39:26;18.87;;;16.87;;
11113;SDS011;5610;52.154;9.198;2024-01-30T00:42:11;18.77;;;16.83;;
11113;SDS011;5610;52.154;9.198;2024-01-30T00:44:57;16.90;;;15.10;;
11113;SDS011;5610;52.154;9.198;2024-01-30T00:47:43;18.38;;;16.33;;
11113;SDS011;5610;52.154;9.198;2024-01-30T00:50:29;18.20;;;15.10;;
11113;SDS011;5610;52.154;9.198;2024-01-30T00:53:14;16.97;;;15.27;;
11113;SDS011;5610;52.154;9.198;2024-01-30T00:55:59;18.10;;;16.20;;
11113;SDS011;5610;52.154;9.198;2024-01-30T00:58:44;18.90;;;15.57;;
11113;SDS011;5610;52.154;9.198;2024-01-30T01:01:29;17.63;;;15.73;;
11113;SDS011;5610;52.154;9.198;2024-01-30T01:04:16;15.80;;;14.03;;
11113;SDS011;5610;52.154;9.198;2024-01-30T01:07:01;14.83;;;12.90;;
11113;SDS011;5610;52.154;9.198;2024-01-30T01:09:47;15.73;;;14.10;;
11113;SDS011;5610;52.154;9.198;2024-01-30T01:12:32;15.45;;;13.27;;
11113;SDS011;5610;52.154;9.198;2024-01-30T01:15:18;15.30;;;13.65;;
11113;SDS011;5610;52.154;9.198;2024-01-30T01:18:03;15.10;;;13.50;;
11113;SDS011;5610;52.154;9.198;2024-01-30T01:20:50;16.50;;;14.70;;
11113;SDS011;5610;52.154;9.198;2024-01-30T01:23:35;17.50;;;15.35;;
11113;SDS011;5610;52.154;9.198;2024-01-30T01:26:20;14.20;;;12.88;;
11113;SDS011;5610;52.154;9.198;2024-01-30T01:29:06;16.23;;;13.90;;
11113;SDS011;5610;52.154;9.198;2024-01-30T01:31:53;18.15;;;15.20;;
11113;SDS011;5610;52.154;9.198;2024-01-30T01:34:39;16.17;;;14.43;;
11113;SDS011;5610;52.154;9.198;2024-01-30T01:37:26;17.52;;;14.73;;
11113;SDS011;5610;52.154;9.198;2024-01-30T01:40:12;16.98;;;15.27;;
11113;SDS011;5610;52.154;9.198;2024-01-30T01:42:57;22.23;;;19.48;;
11113;SDS011;5610;52.154;9.198;2024-01-30T01:45:43;21.20;;;17.40;;
11113;SDS011;5610;52.154;9.198;2024-01-30T01:48:28;18.67;;;15.63;;
11113;SDS011;5610;52.154;9.198;2024-01-30T01:51:14;15.38;;;13.77;;
11113;SDS011;5610;52.154;9.198;2024-01-30T01:54:01;18.27;;;15.65;;
11113;SDS011;5610;52.154;9.198;2024-01-30T01:56:48;15.23;;;13.70;;
11113;SDS011;5610;52.154;9.198;2024-01-30T01:59:34;14.77;;;13.27;;
11113;SDS011;5610;52.154;9.198;2024-01-30T02:02:19;16.10;;;14.50;;
11113;SDS011;5610;52.154;9.198;2024-01-30T02:05:08;17.60;;;15.80;;
11113;SDS011;5610;52.154;9.198;2024-01-30T02:07:53;21.23;;;18.60;;
11113;SDS011;5610;52.154;9.198;2024-01-30T02:10:41;21.90;;;18.17;;
11113;SDS011;5610;52.154;9.198;2024-01-30T02:13:26;23.50;;;19.10;;
11113;SDS011;5610;52.154;9.198;2024-01-30T02:16:12;22.00;;;19.50;;
11113;SDS011;5610;52.154;9.198;2024-01-30T02:18:57;21.23;;;19.00;;
11113;SDS011;5610;52.154;9.198;2024-01-30T02:21:44;20.17;;;18.03;;
11113;SDS011;5610;52.154;9.198;2024-01-30T02:24:30;22.00;;;18.80;;
11113;SDS011;5610;52.154;9.198;2024-01-30T02:27:15;19.23;;;16.93;;
11113;SDS011;5610;52.154;9.198;2024-01-30T02:30:00;17.53;;;15.83;;
11113;SDS011;5610;52.154;9.198;2024-01-30T02:32:46;22.50;;;18.17;;
11113;SDS011;5610;52.154;9.198;2024-01-30T02:35:31;18.40;;;16.70;;
11113;SDS011;5610;52.154;9.198;2024-01-30T02:38:18;20.57;;;17.90;;
11113;SDS011;5610;52.154;9.198;2024-01-30T02:41:03;21.67;;;18.50;;
11113;SDS011;5610;52.154;9.198;2024-01-30T02:43:49;18.77;;;16.77;;
11113;SDS011;5610;52.154;9.198;2024-01-30T02:46:34;18.93;;;17.00;;
11113;SDS011;5610;52.154;9.198;2024-01-30T02:49:19;19.73;;;17.47;;
11113;SDS011;5610;52.154;9.198;2024-01-30T02:52:05;19.80;;;17.20;;
11113;SDS011;5610;52.154;9.198;2024-01-30T02:54:51;18.33;;;16.30;;
11113;SDS011;5610;52.154;9.198;2024-01-30T02:57:36;19.40;;;17.00;;
11113;SDS011;5610;52.154;9.198;2024-01-30T03:00:22;19.45;;;17.27;;
11113;SDS011;5610;52.154;9.198;2024-01-30T03:03:07;24.13;;;19.40;;
11113;SDS011;5610;52.154;9.198;2024-01-30T03:05:52;20.10;;;17.50;;
11113;SDS011;5610;52.154;9.198;2024-01-30T03:08:37;20.20;;;18.10;;
11113;SDS011;5610;52.154;9.198;2024-01-30T03:11:24;22.93;;;18.57;;
11113;SDS011;5610;52.154;9.198;2024-01-30T03:14:09;20.73;;;18.60;;
11113;SDS011;5610;52.154;9.198;2024-01-30T03:16:55;21.10;;;18.80;;
11113;SDS011;5610;52.154;9.198;2024-01-30T03:19:40;19.70;;;17.40;;
11113;SDS011;5610;52.154;9.198;2024-01-30T03:22:25;20.07;;;17.97;;
11113;SDS011;5610;52.154;9.198;2024-01-30T03:25:10;21.30;;;18.60;;
11113;SDS011;5610;52.154;9.198;2024-01-30T03:27:57;21.53;;;17.40;;
11113;SDS011;5610;52.154;9.198;2024-01-30T03:30:42;21.97;;;17.23;;
11113;SDS011;5610;52.154;9.198;2024-01-30T03:33:27;17.87;;;16.17;;
11113;SDS011;5610;52.154;9.198;2024-01-30T03:36:14;19.97;;;16.73;;
11113;SDS011;5610;52.154;9.198;2024-01-30T03:39:01;22.67;;;19.77;;
11113;SDS011;5610;52.154;9.198;2024-01-30T03:41:46;23.45;;;18.35;;
11113;SDS011;5610;52.154;9.198;2024-01-30T03:44:33;20.55;;;18.35;;
11113;SDS011;5610;52.154;9.198;2024-01-30T03:47:18;19.80;;;17.67;;
11113;SDS011;5610;52.154;9.198;2024-01-30T03:50:04;20.50;;;18.03;;
11113;SDS011;5610;52.154;9.198;2024-01-30T03:52:49;20.40;;;18.23;;
11113;SDS011;5610;52.154;9.198;2024-01-30T03:55:34;21.40;;;19.17;;
11113;SDS011;5610;52.154;9.198;2024-01-30T03:58:20;30.63;;;19.98;;
11113;SDS011;5610;52.154;9.198;2024-01-30T04:01:06;23.60;;;20.50;;
11113;SDS011;5610;52.154;9.198;2024-01-30T04:03:52;22.63;;;20.23;;
11113;SDS011;5610;52.154;9.198;2024-01-30T04:06:37;21.52;;;19.05;;
11113;SDS011;5610;52.154;9.198;2024-01-30T04:09:22;23.00;;;20.27;;
11113;SDS011;5610;52.154;9.198;2024-01-30T04:12:07;23.60;;;20.02;;
11113;SDS011;5610;52.154;9.198;2024-01-30T04:14:53;24.37;;;19.67;;
11113;SDS011;5610;52.154;9.198;2024-01-30T04:17:39;25.10;;;21.20;;
11113;SDS011;5610;52.154;9.198;2024-01-30T04:20:25;27.20;;;21.40;;
11113;SDS011;5610;52.154;9.198;2024-01-30T04:23:10;22.75;;;20.10;;
11113;SDS011;5610;52.154;9.198;2024-01-30T04:25:56;23.73;;;19.70;;
11113;SDS011;5610;52.154;9.198;2024-01-30T04:28:41;22.38;;;20.00;;
11113;SDS011;5610;52.154;9.198;2024-01-30T04:31:26;25.67;;;20.33;;
11113;SDS011;5610;52.154;9.198;2024-01-30T04:34:13;25.70;;;21.40;;
11113;SDS011;5610;52.154;9.198;2024-01-30T04:36:58;23.17;;;19.90;;
11113;SDS011;5610;52.154;9.198;2024-01-30T04:39:43;22.80;;;20.17;;
11113;SDS011;5610;52.154;9.198;2024-01-30T04:42:28;23.50;;;20.23;;
11113;SDS011;5610;52.154;9.198;2024-01-30T04:45:13;23.70;;;20.55;;
11113;SDS011;5610;52.154;9.198;2024-01-30T04:47:59;22.27;;;19.13;;
11113;SDS011;5610;52.154;9.198;2024-01-30T04:50:45;20.73;;;17.87;;
11113;SDS011;5610;52.154;9.198;2024-01-30T04:53:31;24.90;;;20.63;;
11113;SDS011;5610;52.154;9.198;2024-01-30T04:56:16;26.50;;;20.20;;
11113;SDS011;5610;52.154;9.198;2024-01-30T04:59:01;23.90;;;20.23;;
11113;SDS011;5610;52.154;9.198;2024-01-30T05:01:46;23.40;;;20.43;;
11113;SDS011;5610;52.154;9.198;2024-01-30T05:04:32;23.70;;;20.50;;
11113;SDS011;5610;52.154;9.198;2024-01-30T05:07:18;21.20;;;18.40;;
11113;SDS011;5610;52.154;9.198;2024-01-30T05:10:04;21.53;;;17.87;;
11113;SDS011;5610;52.154;9.198;2024-01-30T05:12:49;22.13;;;19.83;;
11113;SDS011;5610;52.154;9.198;2024-01-30T05:15:35;21.27;;;19.02;;
11113;SDS011;5610;52.154;9.198;2024-01-30T05:18:19;22.80;;;20.07;;
11113;SDS011;5610;52.154;9.198;2024-01-30T05:21:05;22.30;;;19.98;;
11113;SDS011;5610;52.154;9.198;2024-01-30T05:23:52;23.40;;;20.05;;
11113;SDS011;5610;52.154;9.198;2024-01-30T05:26:37;21.40;;;19.08;;
11113;SDS011;5610;52.154;9.198;2024-01-30T05:29:22;22.60;;;20.20;;
11113;SDS011;5610;52.154;9.198;2024-01-30T05:32:07;24.50;;;20.40;;
11113;SDS011;5610;52.154;9.198;2024-01-30T05:34:52;22.30;;;19.93;;
11113;SDS011;5610;52.154;9.198;2024-01-30T05:37:37;29.50;;;21.00;;
11113;SDS011;5610;52.154;9.198;2024-01-30T05:40:24;24.07;;;20.20;;
11113;SDS011;5610;52.154;9.198;2024-01-30T05:43:09;23.13;;;20.53;;
11113;SDS011;5610;52.154;9.198;2024-01-30T05:45:54;20.70;;;18.60;;
11113;SDS011;5610;52.154;9.198;2024-01-30T05:48:39;22.40;;;18.67;;
11113;SDS011;5610;52.154;9.198;2024-01-30T05:51:24;21.80;;;19.50;;
11113;SDS011;5610;52.154;9.198;2024-01-30T05:54:10;25.60;;;20.00;;
11113;SDS011;5610;52.154;9.198;2024-01-30T05:56:56;26.23;;;20.90;;
11113;SDS011;5610;52.154;9.198;2024-01-30T05:59:42;24.00;;;20.23;;
11113;SDS011;5610;52.154;9.198;2024-01-30T06:02:27;20.40;;;18.27;;
11113;SDS011;5610;52.154;9.198;2024-01-30T06:05:13;26.30;;;21.27;;
11113;SDS011;5610;52.154;9.198;2024-01-30T06:07:58;21.40;;;18.90;;
11113;SDS011;5610;52.154;9.198;2024-01-30T06:10:43;24.13;;;19.70;;
11113;SDS011;5610;52.154;9.198;2024-01-30T06:13:29;22.47;;;19.90;;
11113;SDS011;5610;52.154;9.198;2024-01-30T06:16:16;26.23;;;20.87;;
11113;SDS011;5610;52.154;9.198;2024-01-30T06:19:01;23.53;;;20.00;;
11113;SDS011;5610;52.154;9.198;2024-01-30T06:21:46;21.60;;;19.33;;
11113;SDS011;5610;52.154;9.198;2024-01-30T06:24:31;23.60;;;20.43;;
11113;SDS011;5610;52.154;9.198;2024-01-30T06:27:17;22.80;;;20.27;;
11113;SDS011;5610;52.154;9.198;2024-01-30T06:30:04;24.00;;;20.70;;
11113;SDS011;5610;52.154;9.198;2024-01-30T06:32:50;25.77;;;20.73;;
11113;SDS011;5610;52.154;9.198;2024-01-30T06:35:35;23.60;;;21.03;;
11113;SDS011;5610;52.154;9.198;2024-01-30T06:38:23;23.60;;;20.40;;
11113;SDS011;5610;52.154;9.198;2024-01-30T06:41:08;23.03;;;20.63;;
11113;SDS011;5610;52.154;9.198;2024-01-30T06:43:54;26.47;;;21.53;;
11113;SDS011;5610;52.154;9.198;2024-01-30T06:46:40;22.67;;;20.30;;
11113;SDS011;5610;52.154;9.198;2024-01-30T06:49:25;28.73;;;22.80;;
11113;SDS011;5610;52.154;9.198;2024-01-30T06:52:10;22.93;;;20.47;;
11113;SDS011;5610;52.154;9.198;2024-01-30T06:54:55;22.60;;;20.20;;
11113;SDS011;5610;52.154;9.198;2024-01-30T06:57:41;25.37;;;20.63;;
11113;SDS011;5610;52.154;9.198;2024-01-30T07:00:26;25.00;;;20.10;;
11113;SDS011;5610;52.154;9.198;2024-01-30T07:03:13;23.50;;;19.83;;
11113;SDS011;5610;52.154;9.198;2024-01-30T07:05:58;24.30;;;20.60;;
11113;SDS011;5610;52.154;9.198;2024-01-30T07:08:43;22.13;;;19.70;;
11113;SDS011;5610;52.154;9.198;2024-01-30T07:11:29;24.17;;;19.73;;
11113;SDS011;5610;52.154;9.198;2024-01-30T07:14:14;23.63;;;20.57;;
11113;SDS011;5610;52.154;9.198;2024-01-30T07:16:59;22.90;;;20.50;;
11113;SDS011;5610;52.154;9.198;2024-01-30T07:19:46;23.23;;;18.83;;
11113;SDS011;5610;52.154;9.198;2024-01-30T07:22:31;23.03;;;20.23;;
11113;SDS011;5610;52.154;9.198;2024-01-30T07:25:17;22.30;;;19.67;;
11113;SDS011;5610;52.154;9.198;2024-01-30T07:28:02;25.87;;;19.80;;
11113;SDS011;5610;52.154;9.198;2024-01-30T07:30:47;23.13;;;19.80;;
11113;SDS011;5610;52.154;9.198;2024-01-30T07:33:35;21.40;;;18.77;;
11113;SDS011;5610;52.154;9.198;2024-01-30T07:36:21;25.77;;;20.50;;
11113;SDS011;5610;52.154;9.198;2024-01-30T07:39:06;19.63;;;17.57;;
11113;SDS011;5610;52.154;9.198;2024-01-30T07:41:52;24.70;;;19.67;;
11113;SDS011;5610;52.154;9.198;2024-01-30T07:44:37;27.20;;;20.00;;
11113;SDS011;5610;52.154;9.198;2024-01-30T07:47:22;23.23;;;18.50;;
11113;SDS011;5610;52.154;9.198;2024-01-30T07:50:07;24.03;;;19.30;;
11113;SDS011;5610;52.154;9.198;2024-01-30T07:52:55;21.73;;;19.43;;
11113;SDS011;5610;52.154;9.198;2024-01-30T07:55:40;22.80;;;18.30;;
11113;SDS011;5610;52.154;9.198;2024-01-30T07:58:28;20.80;;;18.60;;
11113;SDS011;5610;52.154;9.198;2024-01-30T08:01:14;22.90;;;18.37;;
11113;SDS011;5610;52.154;9.198;2024-01-30T08:03:59;23.97;;;18.83;;
11113;SDS011;5610;52.154;9.198;2024-01-30T08:06:44;20.83;;;17.67;;
11113;SDS011;5610;52.154;9.198;2024-01-30T08:09:31;21.20;;;19.00;;
11113;SDS011;5610;52.154;9.198;2024-01-30T08:12:16;21.67;;;18.60;;
11113;SDS011;5610;52.154;9.198;2024-01-30T08:15:01;21.23;;;18.33;;
11113;SDS011;5610;52.154;9.198;2024-01-30T08:17:46;22.97;;;18.13;;
11113;SDS011;5610;52.154;9.198;2024-01-30T08:20:32;20.20;;;17.70;;
11113;SDS011;5610;52.154;9.198;2024-01-30T08:23:17;20.83;;;17.20;;
11113;SDS011;5610;52.154;9.198;2024-01-30T08:26:03;21.30;;;19.00;;
11113;SDS011;5610;52.154;9.198;2024-01-30T08:28:49;22.00;;;17.43;;
11113;SDS011;5610;52.154;9.198;2024-01-30T08:31:35;20.27;;;18.13;;
11113;SDS011;5610;52.154;9.198;2024-01-30T08:34:20;21.40;;;18.13;;
11113;SDS011;5610;52.154;9.198;2024-01-30T08:37:06;21.40;;;18.00;;
11113;SDS011;5610;52.154;9.198;2024-01-30T08:39:51;22.20;;;18.73;;
11113;SDS011;5610;52.154;9.198;2024-01-30T08:42:37;22.60;;;17.53;;
11113;SDS011;5610;52.154;9.198;2024-01-30T08:45:23;18.87;;;16.90;;
11113;SDS011;5610;52.154;9.198;2024-01-30T08:48:08;18.30;;;16.40;;
11113;SDS011;5610;52.154;9.198;2024-01-30T08:50:54;19.63;;;17.63;;
11113;SDS011;5610;52.154;9.198;2024-01-30T08:53:40;19.50;;;17.40;;
11113;SDS011;5610;52.154;9.198;2024-01-30T08:56:25;20.60;;;16.67;;
11113;SDS011;5610;52.154;9.198;2024-01-30T08:59:12;20.80;;;17.07;;
11113;SDS011;5610;52.154;9.198;2024-01-30T09:01:58;19.73;;;16.03;;
11113;SDS011;5610;52.154;9.198;2024-01-30T09:04:43;18.23;;;16.10;;
11113;SDS011;5610;52.154;9.198;2024-01-30T09:07:28;16.93;;;15.27;;
11113;SDS011;5610;52.154;9.198;2024-01-30T09:10:13;17.83;;;15.83;;
11113;SDS011;5610;52.154;9.198;2024-01-30T09:12:59;18.27;;;16.47;;
11113;SDS011;5610;52.154;9.198;2024-01-30T09:15:45;18.30;;;16.37;;
11113;SDS011;5610;52.154;9.198;2024-01-30T09:18:31;17.57;;;15.77;;
11113;SDS011;5610;52.154;9.198;2024-01-30T09:21:16;17.37;;;15.67;;
11113;SDS011;5610;52.154;9.198;2024-01-30T09:24:02;18.20;;;16.40;;
11113;SDS011;5610;52.154;9.198;2024-01-30T09:26:48;17.67;;;15.77;;
11113;SDS011;5610;52.154;9.198;2024-01-30T09:29:34;17.67;;;15.73;;
11113;SDS011;5610;52.154;9.198;2024-01-30T09:32:21;16.90;;;15.10;;
11113;SDS011;5610;52.154;9.198;2024-01-30T09:35:07;17.80;;;15.07;;
11113;SDS011;5610;52.154;9.198;2024-01-30T09:37:52;16.90;;;15.10;;
11113;SDS011;5610;52.154;9.198;2024-01-30T09:40:38;17.40;;;15.57;;
11113;SDS011;5610;52.154;9.198;2024-01-30T09:43:23;17.77;;;15.57;;
11113;SDS011;5610;52.154;9.198;2024-01-30T09:46:11;17.73;;;15.90;;
11113;SDS011;5610;52.154;9.198;2024-01-30T09:48:58;16.17;;;14.57;;
11113;SDS011;5610;52.154;9.198;2024-01-30T09:51:44;16.53;;;14.90;;
11113;SDS011;5610;52.154;9.198;2024-01-30T09:54:30;16.23;;;14.53;;
11113;SDS011;5610;52.154;9.198;2024-01-30T09:57:15;16.50;;;14.80;;
11113;SDS011;5610;52.154;9.198;2024-01-30T10:00:00;16.87;;;15.17;;
11113;SDS011;5610;52.154;9.198;2024-01-30T10:02:55;23.00;;;20.30;;
11113;SDS011;5610;52.154;9.198;2024-01-30T10:05:42;18.10;;;16.30;;
11113;SDS011;5610;52.154;9.198;2024-01-30T10:08:35;22.73;;;16.00;;
11113;SDS011;5610;52.154;9.198;2024-01-30T10:11:20;16.60;;;15.10;;
11113;SDS011;5610;52.154;9.198;2024-01-30T10:14:06;16.27;;;14.57;;
11113;SDS011;5610;52.154;9.198;2024-01-30T10:16:51;16.00;;;14.40;;
11113;SDS011;5610;52.154;9.198;2024-01-30T10:19:37;16.73;;;14.30;;
11113;SDS011;5610;52.154;9.198;2024-01-30T10:22:24;14.93;;;13.43;;
11113;SDS011;5610;52.154;9.198;2024-01-30T10:25:10;16.30;;;14.60;;
11113;SDS011;5610;52.154;9.198;2024-01-30T10:27:55;16.13;;;13.67;;
11113;SDS011;5610;52.154;9.198;2024-01-30T10:30:40;15.10;;;13.57;;
11113;SDS011;5610;52.154;9.198;2024-01-30T10:33:26;16.33;;;13.13;;
11113;SDS011;5610;52.154;9.198;2024-01-30T10:36:12;15.77;;;14.00;;
11113;SDS011;5610;52.154;9.198;2024-01-30T10:39:00;16.27;;;13.13;;
11113;SDS011;5610;52.154;9.198;2024-01-30T10:41:47;14.97;;;13.57;;
11113;SDS011;5610;52.154;9.198;2024-01-30T10:44:36;15.40;;;13.80;;
11113;SDS011;5610;52.154;9.198;2024-01-30T10:47:28;15.30;;;13.70;;
11113;SDS011;5610;52.154;9.198;2024-01-30T10:50:13;16.63;;;13.33;;
11113;SDS011;5610;52.154;9.198;2024-01-30T10:52:59;14.57;;;13.03;;
11113;SDS011;5610;52.154;9.198;2024-01-30T10:55:47;14.87;;;13.37;;
11113;SDS011;5610;52.154;9.198;2024-01-30T10:58:36;15.60;;;14.13;;
11113;SDS011;5610;52.154;9.198;2024-01-30T11:01:22;15.87;;;14.17;;
11113;SDS011;5610;52.154;9.198;2024-01-30T11:04:08;22.40;;;16.13;;
11113;SDS011;5610;52.154;9.198;2024-01-30T11:06:54;17.47;;;15.73;;
11113;SDS011;5610;52.154;9.198;2024-01-30T11:09:39;16.40;;;14.90;;
11113;SDS011;5610;52.154;9.198;2024-01-30T11:12:27;16.33;;;14.57;;
11113;SDS011;5610;52.154;9.198;2024-01-30T11:15:13;14.73;;;13.20;;
11113;SDS011;5610;52.154;9.198;2024-01-30T11:17:59;15.10;;;13.00;;
11113;SDS011;5610;52.154;9.198;2024-01-30T11:20:46;14.60;;;12.40;;
11113;SDS011;5610;52.154;9.198;2024-01-30T11:23:33;13.37;;;12.00;;
11113;SDS011;5610;52.154;9.198;2024-01-30T11:26:22;15.30;;;13.77;;
11113;SDS011;5610;52.154;9.198;2024-01-30T11:29:15;15.57;;;13.97;;
11113;SDS011;5610;52.154;9.198;2024-01-30T11:32:02;14.80;;;13.27;;
11113;SDS011;5610;52.154;9.198;2024-01-30T11:34:47;14.77;;;13.17;;
11113;SDS011;5610;52.154;9.198;2024-01-30T11:37:36;15.17;;;13.50;;
11113;SDS011;5610;52.154;9.198;2024-01-30T11:40:22;14.57;;;13.13;;
11113;SDS011;5610;52.154;9.198;2024-01-30T11:43:10;14.30;;;12.90;;
11113;SDS011;5610;52.154;9.198;2024-01-30T11:45:57;14.30;;;12.97;;
11113;SDS011;5610;52.154;9.198;2024-01-30T11:48:42;15.73;;;14.23;;
11113;SDS011;5610;52.154;9.198;2024-01-30T11:51:27;13.53;;;12.30;;
11113;SDS011;5610;52.154;9.198;2024-01-30T11:54:16;12.37;;;11.20;;
11113;SDS011;5610;52.154;9.198;2024-01-30T11:57:01;11.83;;;10.73;;
11113;SDS011;5610;52.154;9.198;2024-01-30T11:59:46;10.97;;;9.87;;
11113;SDS011;5610;52.154;9.198;2024-01-30T12:02:33;12.97;;;11.37;;
11113;SDS011;5610;52.154;9.198;2024-01-30T12:05:19;11.80;;;10.80;;
11113;SDS011;5610;52.154;9.198;2024-01-30T12:08:05;10.83;;;9.83;;
11113;SDS011;5610;52.154;9.198;2024-01-30T12:10:55;11.63;;;10.53;;
11113;SDS011;5610;52.154;9.198;2024-01-30T12:13:41;12.77;;;11.43;;
11113;SDS011;5610;52.154;9.198;2024-01-30T12:16:26;11.90;;;10.90;;
11113;SDS011;5610;52.154;9.198;2024-01-30T12:19:21;11.03;;;9.93;;
11113;SDS011;5610;52.154;9.198;2024-01-30T12:22:07;11.33;;;10.27;;
11113;SDS011;5610;52.154;9.198;2024-01-30T12:24:55;10.90;;;9.97;;
11113;SDS011;5610;52.154;9.198;2024-01-30T12:27:42;12.90;;;9.60;;
11113;SDS011;5610;52.154;9.198;2024-01-30T12:30:28;12.30;;;10.23;;
11113;SDS011;5610;52.154;9.198;2024-01-30T12:33:15;12.10;;;10.80;;
11113;SDS011;5610;52.154;9.198;2024-01-30T12:36:02;11.73;;;10.73;;
11113;SDS011;5610;52.154;9.198;2024-01-30T12:38:49;14.43;;;10.00;;
11113;SDS011;5610;52.154;9.198;2024-01-30T12:41:35;10.27;;;9.37;;
11113;SDS011;5610;52.154;9.198;2024-01-30T12:44:21;11.10;;;10.10;;
11113;SDS011;5610;52.154;9.198;2024-01-30T12:47:08;11.83;;;10.83;;
11113;SDS011;5610;52.154;9.198;2024-01-30T12:49:53;12.63;;;11.40;;
11113;SDS011;5610;52.154;9.198;2024-01-30T12:52:40;11.30;;;10.13;;
11113;SDS011;5610;52.154;9.198;2024-01-30T12:55:25;12.63;;;11.20;;
11113;SDS011;5610;52.154;9.198;2024-01-30T12:58:12;13.40;;;11.17;;
11113;SDS011;5610;52.154;9.198;2024-01-30T13:00:57;12.70;;;11.23;;
11113;SDS011;5610;52.154;9.198;2024-01-30T13:03:43;11.40;;;10.27;;
11113;SDS011;5610;52.154;9.198;2024-01-30T13:06:28;14.93;;;12.90;;
11113;SDS011;5610;52.154;9.198;2024-01-30T13:09:15;13.23;;;11.83;;
11113;SDS011;5610;52.154;9.198;2024-01-30T13:12:00;12.40;;;11.17;;
11113;SDS011;5610;52.154;9.198;2024-01-30T13:14:45;12.80;;;11.50;;
11113;SDS011;5610;52.154;9.198;2024-01-30T13:17:31;12.47;;;11.17;;
11113;SDS011;5610;52.154;9.198;2024-01-30T13:20:17;12.80;;;11.63;;
11113;SDS011;5610;52.154;9.198;2024-01-30T13:23:04;13.10;;;11.80;;
11113;SDS011;5610;52.154;9.198;2024-01-30T13:25:50;16.13;;;11.83;;
11113;SDS011;5610;52.154;9.198;2024-01-30T13:28:37;11.80;;;10.40;;
11113;SDS011;5610;52.154;9.198;2024-01-30T13:31:22;10.90;;;9.90;;
11113;SDS011;5610;52.154;9.198;2024-01-30T13:34:07;10.27;;;9.13;;
11113;SDS011;5610;52.154;9.198;2024-01-30T13:36:52;9.57;;;8.57;;
11113;SDS011;5610;52.154;9.198;2024-01-30T13:39:37;12.00;;;8.73;;
11113;SDS011;5610;52.154;9.198;2024-01-30T13:42:25;14.93;;;9.07;;
11113;SDS011;5610;52.154;9.198;2024-01-30T13:45:11;11.60;;;8.40;;
11113;SDS011;5610;52.154;9.198;2024-01-30T13:47:56;12.97;;;9.43;;
11113;SDS011;5610;52.154;9.198;2024-01-30T13:50:43;13.00;;;11.70;;
11113;SDS011;5610;52.154;9.198;2024-01-30T13:53:28;12.47;;;9.80;;
11113;SDS011;5610;52.154;9.198;2024-01-30T13:56:13;13.40;;;9.90;;
11113;SDS011;5610;52.154;9.198;2024-01-30T13:59:00;12.17;;;9.83;;
11113;SDS011;5610;52.154;9.198;2024-01-30T14:01:49;17.07;;;10.70;;
11113;SDS011;5610;52.154;9.198;2024-01-30T14:04:34;11.77;;;9.87;;
11113;SDS011;5610;52.154;9.198;2024-01-30T14:07:21;15.70;;;9.27;;
11113;SDS011;5610;52.154;9.198;2024-01-30T14:10:06;11.03;;;9.70;;
11113;SDS011;5610;52.154;9.198;2024-01-30T14:12:52;13.23;;;10.00;;
11113;SDS011;5610;52.154;9.198;2024-01-30T14:15:38;10.23;;;9.13;;
11113;SDS011;5610;52.154;9.198;2024-01-30T14:18:24;10.13;;;9.03;;
11113;SDS011;5610;52.154;9.198;2024-01-30T14:21:09;11.80;;;8.80;;
11113;SDS011;5610;52.154;9.198;2024-01-30T14:23:54;10.90;;;8.10;;
11113;SDS011;5610;52.154;9.198;2024-01-30T14:26:39;10.47;;;9.33;;
11113;SDS011;5610;52.154;9.198;2024-01-30T14:29:24;11.40;;;9.13;;
11113;SDS011;5610;52.154;9.198;2024-01-30T14:32:11;18.33;;;9.83;;
11113;SDS011;5610;52.154;9.198;2024-01-30T14:34:57;10.97;;;9.53;;
11113;SDS011;5610;52.154;9.198;2024-01-30T14:37:42;10.40;;;9.40;;
11113;SDS011;5610;52.154;9.198;2024-01-30T14:40:27;11.37;;;10.27;;
11113;SDS011;5610;52.154;9.198;2024-01-30T14:43:13;10.93;;;9.60;;
11113;SDS011;5610;52.154;9.198;2024-01-30T14:45:58;11.30;;;9.40;;
11113;SDS011;5610;52.154;9.198;2024-01-30T14:48:45;10.37;;;9.33;;
11113;SDS011;5610;52.154;9.198;2024-01-30T14:51:30;9.63;;;8.40;;
11113;SDS011;5610;52.154;9.198;2024-01-30T14:54:16;13.30;;;10.70;;
11113;SDS011;5610;52.154;9.198;2024-01-30T14:57:02;14.70;;;10.73;;
11113;SDS011;5610;52.154;9.198;2024-01-30T14:59:47;13.67;;;10.27;;
11113;SDS011;5610;52.154;9.198;2024-01-30T15:02:33;13.50;;;10.20;;
11113;SDS011;5610;52.154;9.198;2024-01-30T15:05:22;12.10;;;10.33;;
11113;SDS011;5610;52.154;9.198;2024-01-30T15:08:07;13.73;;;11.13;;
11113;SDS011;5610;52.154;9.198;2024-01-30T15:10:53;14.50;;;9.97;;
11113;SDS011;5610;52.154;9.198;2024-01-30T15:13:38;14.10;;;12.43;;
11113;SDS011;5610;52.154;9.198;2024-01-30T15:16:23;10.90;;;9.80;;
11113;SDS011;5610;52.154;9.198;2024-01-30T15:19:08;16.40;;;12.60;;
11113;SDS011;5610;52.154;9.198;2024-01-30T15:21:55;14.97;;;11.07;;
11113;SDS011;5610;52.154;9.198;2024-01-30T15:24:40;16.70;;;14.27;;
11113;SDS011;5610;52.154;9.198;2024-01-30T15:27:26;12.73;;;10.80;;
11113;SDS011;5610;52.154;9.198;2024-01-30T15:30:11;14.20;;;12.57;;
11113;SDS011;5610;52.154;9.198;2024-01-30T15:32:57;17.03;;;12.00;;
11113;SDS011;5610;52.154;9.198;2024-01-30T15:35:43;10.23;;;9.23;;
11113;SDS011;5610;52.154;9.198;2024-01-30T15:38:29;12.67;;;11.33;;
11113;SDS011;5610;52.154;9.198;2024-01-30T15:41:15;11.73;;;9.33;;
11113;SDS011;5610;52.154;9.198;2024-01-30T15:44:00;10.87;;;9.90;;
11113;SDS011;5610;52.154;9.198;2024-01-30T15:46:47;13.07;;;9.50;;
11113;SDS011;5610;52.154;9.198;2024-01-30T15:49:32;11.30;;;10.17;;
11113;SDS011;5610;52.154;9.198;2024-01-30T15:52:17;11.90;;;10.10;;
11113;SDS011;5610;52.154;9.198;2024-01-30T15:55:04;11.30;;;10.03;;
11113;SDS011;5610;52.154;9.198;2024-01-30T15:57:49;12.40;;;11.30;;
11113;SDS011;5610;52.154;9.198;2024-01-30T16:00:35;11.33;;;9.93;;
11113;SDS011;5610;52.154;9.198;2024-01-30T16:03:21;13.80;;;10.40;;
11113;SDS011;5610;52.154;9.198;2024-01-30T16:06:06;13.23;;;10.93;;
11113;SDS011;5610;52.154;9.198;2024-01-30T16:08:52;12.53;;;11.27;;
11113;SDS011;5610;52.154;9.198;2024-01-30T16:11:38;15.23;;;11.70;;
11113;SDS011;5610;52.154;9.198;2024-01-30T16:14:23;13.40;;;12.00;;
11113;SDS011;5610;52.154;9.198;2024-01-30T16:17:08;14.90;;;12.73;;
11113;SDS011;5610;52.154;9.198;2024-01-30T16:19:54;12.90;;;11.57;;
11113;SDS011;5610;52.154;9.198;2024-01-30T16:22:42;15.13;;;11.87;;
11113;SDS011;5610;52.154;9.198;2024-01-30T16:25:27;13.37;;;11.70;;